createdAt,value
2023-11-15T00:01:57.163Z,92.10
2023-11-15T00:04:35.081Z,92.08
2023-11-15T00:07:14.865Z,91.66
2023-11-15T00:09:51.848Z,91.56
2023-11-15T00:12:21.681Z,91.97
2023-11-15T00:14:57.611Z,91.69
2023-11-15T00:17:41.859Z,91.59
2023-11-15T00:20:14.671Z,91.66
2023-11-15T00:22:52.581Z,91.54
2023-11-15T00:25:26.410Z,91.89
2023-11-15T00:27:55.930Z,91.75
2023-11-15T00:30:28.111Z,91.88
2023-11-15T00:33:00.594Z,91.75
2023-11-15T00:35:34.917Z,91.77
2023-11-15T00:38:07.518Z,91.90
2023-11-15T00:40:39.844Z,92.10
2023-11-15T00:45:44.934Z,92.07
2023-11-15T00:48:17.159Z,91.79
2023-11-15T00:50:47.792Z,91.74
2023-11-15T00:53:21.193Z,92.13
2023-11-15T00:56:00.035Z,92.04
2023-11-15T00:58:39.840Z,91.92
2023-11-15T01:01:14.722Z,92.03
2023-11-15T01:03:57.464Z,91.56
2023-11-15T01:09:15.873Z,91.46
2023-11-15T01:11:57.224Z,91.23
2023-11-15T01:14:37.609Z,91.10
2023-11-15T01:17:10.058Z,91.53
2023-11-15T01:19:47.244Z,91.72
2023-11-15T01:22:18.037Z,91.93
2023-11-15T01:24:50.450Z,92.00
2023-11-15T01:27:26.354Z,91.72
2023-11-15T01:30:07.847Z,92.05
2023-11-15T01:32:37.959Z,92.32
2023-11-15T01:35:20.319Z,91.78
2023-11-15T01:37:55.189Z,91.53
2023-11-15T01:40:30.210Z,91.76
2023-11-15T01:43:11.330Z,92.02
2023-11-15T01:45:44.287Z,92.13
2023-11-15T01:48:17.185Z,92.38
2023-11-15T01:51:06.374Z,92.98
2023-11-15T01:53:53.739Z,93.29
2023-11-15T01:56:29.513Z,93.41
2023-11-15T01:59:08.422Z,93.97
2023-11-15T02:01:44.979Z,93.80
2023-11-15T02:04:20.916Z,94.39
2023-11-15T02:07:00.671Z,94.59
2023-11-15T02:09:37.093Z,94.53
2023-11-15T02:12:14.707Z,95.09
2023-11-15T02:14:51.199Z,94.80
2023-11-15T02:17:23.825Z,94.45
2023-11-15T02:19:59.053Z,95.03
2023-11-15T02:22:33.769Z,95.19
2023-11-15T02:25:14.362Z,95.20
2023-11-15T02:27:49.455Z,95.31
2023-11-15T02:30:23.467Z,94.83
2023-11-15T02:32:54.159Z,94.67
2023-11-15T02:35:31.104Z,94.74
2023-11-15T02:38:13.078Z,94.98
2023-11-15T02:40:58.200Z,95.01
2023-11-15T02:43:34.964Z,94.90
2023-11-15T02:46:17.411Z,94.68
2023-11-15T02:48:57.190Z,94.86
2023-11-15T02:51:32.080Z,95.09
2023-11-15T02:54:09.642Z,94.98
2023-11-15T02:56:46.573Z,95.58
2023-11-15T02:59:16.535Z,94.42
2023-11-15T03:01:56.146Z,94.48
2023-11-15T03:04:27.569Z,94.34
2023-11-15T03:06:59.827Z,94.55
2023-11-15T03:09:38.472Z,95.08
2023-11-15T03:12:17.224Z,95.07
2023-11-15T03:14:57.541Z,95.25
2023-11-15T03:17:33.773Z,94.82
2023-11-15T03:20:06.418Z,95.08
2023-11-15T03:22:41.864Z,94.77
2023-11-15T03:25:12.439Z,94.70
2023-11-15T03:27:48.562Z,95.30
2023-11-15T03:30:24.089Z,95.23
2023-11-15T03:33:02.531Z,94.65
2023-11-15T03:35:40.901Z,95.03
2023-11-15T03:38:13.529Z,95.20
2023-11-15T03:40:45.116Z,95.07
2023-11-15T03:43:24.453Z,94.78
2023-11-15T03:45:59.976Z,94.91
2023-11-15T03:48:46.482Z,95.05
2023-11-15T03:51:20.551Z,95.05
2023-11-15T03:53:54.296Z,94.90
2023-11-15T03:56:24.291Z,95.06
2023-11-15T03:59:02.249Z,95.05
2023-11-15T04:01:48.580Z,94.82
2023-11-15T04:04:36.845Z,95.03
2023-11-15T04:07:13.502Z,95.47
2023-11-15T04:09:52.785Z,95.28
2023-11-15T04:12:26.508Z,95.67
2023-11-15T04:15:04.581Z,95.92
2023-11-15T04:17:35.907Z,96.29
2023-11-15T04:20:15.796Z,96.57
2023-11-15T04:22:46.918Z,96.99
2023-11-15T04:25:24.103Z,97.17
2023-11-15T04:27:56.206Z,98.03
2023-11-15T04:30:30.983Z,97.13
2023-11-15T04:33:04.053Z,97.12
2023-11-15T04:35:40.746Z,97.23
2023-11-15T04:38:18.130Z,96.91
2023-11-15T04:40:55.093Z,97.22
2023-11-15T04:43:25.029Z,97.94
2023-11-15T04:46:00.897Z,96.82
2023-11-15T04:48:34.515Z,96.91
2023-11-15T04:51:04.222Z,96.75
2023-11-15T04:53:41.377Z,96.67
2023-11-15T04:56:16.014Z,96.64
2023-11-15T04:58:47.825Z,96.30
2023-11-15T05:01:26.812Z,96.80
2023-11-15T05:03:56.662Z,96.96
2023-11-15T05:09:07.128Z,97.20
2023-11-15T05:11:46.181Z,98.12
2023-11-15T05:14:18.574Z,98.23
2023-11-15T05:16:59.871Z,98.25
2023-11-15T05:19:43.533Z,98.78
2023-11-15T05:22:22.458Z,99.21
2023-11-15T05:24:55.326Z,98.93
2023-11-15T05:27:30.420Z,99.45
2023-11-15T05:30:04.949Z,100.00
2023-11-15T05:32:44.291Z,99.80
2023-11-15T05:35:19.176Z,99.94
2023-11-15T05:37:52.576Z,99.68
2023-11-15T05:40:28.317Z,100.00
2023-11-15T05:43:12.931Z,100.00
2023-11-15T05:46:08.677Z,100.00
2023-11-15T05:48:54.958Z,100.00
2023-11-15T05:51:30.814Z,100.00
2023-11-15T05:56:59.832Z,100.00
2023-11-15T06:02:19.928Z,100.00
2023-11-15T06:04:54.097Z,100.00
2023-11-15T06:07:29.566Z,100.00
2023-11-15T06:10:04.464Z,99.24
2023-11-15T06:15:48.835Z,97.73
2023-11-15T06:18:22.791Z,96.46
2023-11-15T06:20:59.676Z,96.46
2023-11-15T06:23:38.659Z,96.81
2023-11-15T06:26:19.087Z,96.21
2023-11-15T06:28:57.314Z,95.99
2023-11-15T06:31:28.889Z,95.77
2023-11-15T06:34:02.262Z,95.39
2023-11-15T06:36:43.470Z,93.63
2023-11-15T06:39:22.008Z,92.44
2023-11-15T06:44:37.449Z,91.50
2023-11-15T06:47:17.571Z,89.49
2023-11-15T06:49:49.341Z,89.35
2023-11-15T06:52:34.259Z,86.50
2023-11-15T06:55:07.760Z,86.80
2023-11-15T06:57:50.701Z,85.27
2023-11-15T07:00:27.462Z,85.14
2023-11-15T07:03:00.838Z,84.22
2023-11-15T07:05:51.205Z,83.29
2023-11-15T07:08:48.011Z,82.45
2023-11-15T07:11:22.400Z,83.00
2023-11-15T07:14:05.443Z,81.27
2023-11-15T07:16:35.155Z,81.14
2023-11-15T07:19:12.629Z,81.17
2023-11-15T07:21:58.622Z,82.02
2023-11-15T07:24:42.685Z,81.01
2023-11-15T07:27:28.620Z,81.09
2023-11-15T07:30:12.693Z,80.21
2023-11-15T07:32:53.181Z,80.14
2023-11-15T07:35:30.451Z,80.35
2023-11-15T07:38:10.467Z,80.20
2023-11-15T07:40:47.862Z,79.36
2023-11-15T07:43:19.200Z,79.53
2023-11-15T07:45:56.060Z,79.41
2023-11-15T07:48:31.976Z,80.51
2023-11-15T07:51:19.515Z,79.61
2023-11-15T07:54:01.897Z,79.34
2023-11-15T07:56:40.454Z,78.36
2023-11-15T07:59:12.656Z,78.93
2023-11-15T08:01:45.961Z,78.94
2023-11-15T08:04:27.558Z,78.74
2023-11-15T08:07:06.561Z,78.78
2023-11-15T08:09:37.712Z,79.10
2023-11-15T08:12:15.360Z,78.82
2023-11-15T08:14:55.564Z,79.35
2023-11-15T08:17:27.448Z,79.58
2023-11-15T08:20:01.336Z,79.72
2023-11-15T08:22:37.027Z,79.24
2023-11-15T08:25:13.328Z,78.46
2023-11-15T08:27:45.564Z,79.39
2023-11-15T08:30:19.370Z,79.43
2023-11-15T08:33:09.413Z,79.17
2023-11-15T08:35:51.185Z,79.46
2023-11-15T08:38:26.404Z,79.52
2023-11-15T08:40:58.295Z,80.24
2023-11-15T08:44:04.818Z,81.13
2023-11-15T08:46:47.239Z,81.83
2023-11-15T08:49:21.417Z,82.24
2023-11-15T08:51:58.367Z,82.71
2023-11-15T08:57:18.300Z,83.81
2023-11-15T08:59:58.289Z,84.57
2023-11-15T09:02:32.912Z,84.54
2023-11-15T09:05:21.752Z,84.78
2023-11-15T09:08:00.907Z,84.75
2023-11-15T09:10:32.897Z,84.58
2023-11-15T09:13:09.107Z,84.90
2023-11-15T09:15:48.291Z,84.63
2023-11-15T09:18:27.227Z,84.42
2023-11-15T09:24:04.141Z,84.35
2023-11-15T09:26:36.860Z,83.09
2023-11-15T09:29:10.624Z,82.85
2023-11-15T09:31:47.456Z,82.54
2023-11-15T09:34:20.841Z,82.60
2023-11-15T09:37:07.433Z,82.26
2023-11-15T09:39:47.808Z,82.20
2023-11-15T09:42:21.758Z,81.88
2023-11-15T09:44:52.964Z,83.08
2023-11-15T09:47:33.207Z,84.05
2023-11-15T09:50:16.047Z,84.54
2023-11-15T09:52:50.742Z,84.93
2023-11-15T09:55:24.202Z,85.52
2023-11-15T09:57:59.244Z,86.11
2023-11-15T10:00:36.537Z,86.83
2023-11-15T10:03:20.010Z,87.33
2023-11-15T10:06:07.345Z,87.55
2023-11-15T10:08:41.450Z,87.23
2023-11-15T10:11:16.869Z,87.74
2023-11-15T10:13:52.311Z,87.53
2023-11-15T10:16:32.199Z,87.88
2023-11-15T10:19:24.809Z,87.89
2023-11-15T10:22:06.487Z,87.26
2023-11-15T10:24:44.412Z,86.42
2023-11-15T10:27:25.666Z,86.24
2023-11-15T10:30:04.425Z,85.91
2023-11-15T10:32:39.631Z,85.85
2023-11-15T10:35:19.921Z,85.27
2023-11-15T10:40:45.031Z,83.55
2023-11-15T10:43:31.514Z,81.37
2023-11-15T10:46:03.962Z,82.23
2023-11-15T10:48:38.252Z,82.15
2023-11-15T10:51:25.805Z,81.45
2023-11-15T10:54:02.139Z,81.96
2023-11-15T10:56:36.355Z,81.39
2023-11-15T10:59:07.610Z,81.87
2023-11-15T11:01:39.424Z,81.61
2023-11-15T11:04:17.629Z,81.77
2023-11-15T11:09:47.696Z,81.56
2023-11-15T11:12:31.321Z,81.30
2023-11-15T11:15:36.849Z,81.27
2023-11-15T11:18:23.423Z,81.38
2023-11-15T11:21:03.675Z,81.62
2023-11-15T11:24:19.645Z,81.34
2023-11-15T11:26:54.920Z,81.66
2023-11-15T11:29:27.962Z,81.46
2023-11-15T11:32:35.184Z,80.89
2023-11-15T11:35:40.300Z,79.43
2023-11-15T11:38:13.021Z,79.67
2023-11-15T11:40:56.918Z,78.61
2023-11-15T11:43:32.365Z,79.58
2023-11-15T11:46:19.236Z,79.02
2023-11-15T11:48:49.041Z,80.00
2023-11-15T11:51:21.943Z,80.33
2023-11-15T11:53:55.658Z,80.80
2023-11-15T11:56:37.382Z,80.85
2023-11-15T11:59:14.822Z,81.26
2023-11-15T12:01:56.732Z,81.79
2023-11-15T12:04:31.544Z,82.30
2023-11-15T12:07:05.183Z,82.85
2023-11-15T12:09:37.897Z,83.00
2023-11-15T12:12:13.372Z,83.35
2023-11-15T12:14:53.589Z,83.09
2023-11-15T12:17:29.418Z,83.19
2023-11-15T12:20:08.461Z,83.65
2023-11-15T12:22:43.609Z,84.29
2023-11-15T12:25:24.930Z,84.94
2023-11-15T12:28:04.105Z,85.20
2023-11-15T12:30:41.694Z,85.33
2023-11-15T12:33:18.101Z,86.57
2023-11-15T12:35:52.191Z,86.02
2023-11-15T12:38:25.368Z,86.24
2023-11-15T12:47:55.393Z,85.18
2023-11-15T12:50:31.875Z,86.93
2023-11-15T12:53:15.820Z,87.71
2023-11-15T12:56:00.761Z,88.11
2023-11-15T12:58:50.061Z,89.35
2023-11-15T13:01:26.163Z,88.24
2023-11-15T13:04:02.042Z,89.27
2023-11-15T13:06:48.176Z,89.44
2023-11-15T13:12:03.114Z,89.21
2023-11-15T13:17:15.083Z,89.50
2023-11-15T13:19:55.095Z,89.68
2023-11-15T13:22:31.823Z,90.13
2023-11-15T13:25:11.355Z,90.23
2023-11-15T13:27:43.312Z,90.19
2023-11-15T13:30:17.605Z,90.54
2023-11-15T13:32:50.785Z,90.33
2023-11-15T13:35:28.404Z,90.43
2023-11-15T13:38:01.251Z,90.61
2023-11-15T13:40:35.003Z,90.31
2023-11-15T13:43:13.347Z,90.91
2023-11-15T13:45:46.933Z,90.52
2023-11-15T13:48:26.574Z,90.38
2023-11-15T13:51:06.775Z,90.34
2023-11-15T13:53:40.583Z,90.38
2023-11-15T13:56:13.180Z,90.61
2023-11-15T13:58:46.340Z,90.81
2023-11-15T14:01:18.374Z,90.59
2023-11-15T14:03:56.522Z,90.81
2023-11-15T14:06:33.588Z,91.16
2023-11-15T14:09:10.080Z,91.23
2023-11-15T14:11:45.531Z,91.33
2023-11-15T14:14:16.780Z,91.05
2023-11-15T14:16:50.009Z,91.29
2023-11-15T14:19:25.296Z,91.31
2023-11-15T14:21:59.529Z,91.24
2023-11-15T14:24:31.649Z,91.22
2023-11-15T14:29:43.125Z,91.47
2023-11-15T14:32:19.563Z,91.65
2023-11-15T14:34:57.029Z,91.50
2023-11-15T14:37:35.088Z,91.52
2023-11-15T14:40:12.731Z,91.44
2023-11-15T14:42:49.173Z,91.09
2023-11-15T14:45:28.340Z,91.59
2023-11-15T14:48:00.290Z,91.76
2023-11-15T14:50:39.670Z,91.66
2023-11-15T14:53:31.593Z,92.34
2023-11-15T14:56:12.741Z,92.16
2023-11-15T14:58:53.563Z,92.28
2023-11-15T15:01:27.623Z,92.30
2023-11-15T15:04:00.005Z,92.54
2023-11-15T15:06:30.180Z,92.51
2023-11-15T15:09:06.168Z,92.25
2023-11-15T15:11:39.662Z,91.96
2023-11-15T15:14:12.756Z,92.20
2023-11-15T15:19:24.171Z,92.39
2023-11-15T15:21:56.343Z,92.22
2023-11-15T15:24:33.456Z,92.22
2023-11-15T15:27:09.161Z,92.38
2023-11-15T15:29:50.678Z,92.17
2023-11-15T15:32:25.928Z,91.75
2023-11-15T15:34:59.219Z,91.39
2023-11-15T15:37:39.948Z,91.69
2023-11-15T15:40:23.512Z,91.69
2023-11-15T15:43:07.624Z,91.28
2023-11-15T15:45:45.009Z,91.33
2023-11-15T15:48:32.954Z,91.15
2023-11-15T15:51:08.955Z,91.53
2023-11-15T15:53:47.492Z,91.32
2023-11-15T15:56:23.834Z,91.58
2023-11-15T15:59:06.619Z,91.68
2023-11-15T16:01:40.681Z,91.95
2023-11-15T16:04:22.947Z,91.99
2023-11-15T16:07:03.201Z,91.61
2023-11-15T16:09:45.508Z,91.54
2023-11-15T16:12:25.369Z,91.35
2023-11-15T16:14:59.053Z,91.98
2023-11-15T16:20:22.888Z,92.03
2023-11-15T16:22:57.895Z,92.59
2023-11-15T16:25:47.140Z,92.70
2023-11-15T16:28:22.229Z,92.86
2023-11-15T16:31:00.476Z,92.87
2023-11-15T16:33:35.373Z,92.99
2023-11-15T16:36:14.009Z,92.96
2023-11-15T16:38:54.306Z,92.87
2023-11-15T16:41:29.237Z,92.66
2023-11-15T16:44:12.728Z,93.22
2023-11-15T16:50:00.762Z,92.90
2023-11-15T16:52:42.606Z,92.74
2023-11-15T16:55:20.930Z,93.12
2023-11-15T17:00:44.636Z,93.24
2023-11-15T17:03:21.907Z,93.05
2023-11-15T17:05:55.428Z,93.27
2023-11-15T17:08:29.961Z,92.93
2023-11-15T17:11:03.911Z,92.89
2023-11-15T17:13:37.467Z,92.77
2023-11-15T17:16:13.503Z,92.51
2023-11-15T17:18:49.278Z,92.79
2023-11-15T17:21:29.440Z,92.74
2023-11-15T17:24:06.975Z,92.66
2023-11-15T17:26:39.153Z,93.01
2023-11-15T17:29:16.022Z,93.03
2023-11-15T17:31:51.795Z,93.06
2023-11-15T17:34:35.638Z,93.55
2023-11-15T17:37:12.922Z,93.51
2023-11-15T17:39:46.415Z,93.42
2023-11-15T17:42:18.378Z,93.73
2023-11-15T17:45:00.715Z,93.32
2023-11-15T17:47:40.665Z,93.32
2023-11-15T17:50:14.549Z,93.66
2023-11-15T17:52:45.170Z,93.88
2023-11-15T17:55:19.589Z,94.19
2023-11-15T18:00:37.975Z,94.54
2023-11-15T18:03:12.048Z,94.47
2023-11-15T18:08:36.239Z,93.86
2023-11-15T18:11:25.532Z,94.18
2023-11-15T18:13:58.197Z,93.86
2023-11-15T18:16:37.704Z,95.04
2023-11-15T18:19:23.309Z,95.06
2023-11-15T18:22:01.264Z,95.77
2023-11-15T18:24:33.297Z,95.52
2023-11-15T18:27:17.063Z,95.55
2023-11-15T18:29:54.740Z,95.85
2023-11-15T18:32:27.041Z,95.35
2023-11-15T18:35:02.731Z,95.61
2023-11-15T18:37:36.828Z,95.01
2023-11-15T18:40:22.104Z,95.04
2023-11-15T18:42:53.237Z,94.57
2023-11-15T18:45:26.566Z,94.43
2023-11-15T18:47:59.136Z,94.37
2023-11-15T18:50:35.406Z,94.84
2023-11-15T18:53:35.114Z,94.60
2023-11-15T18:56:17.808Z,94.69
2023-11-15T18:58:56.292Z,94.88
2023-11-15T19:01:28.047Z,95.04
2023-11-15T19:04:03.652Z,95.22
2023-11-15T19:06:39.191Z,94.68
2023-11-15T19:09:18.319Z,94.07
2023-11-15T19:11:53.027Z,93.88
2023-11-15T19:14:25.347Z,93.96
2023-11-15T19:16:57.698Z,93.80
2023-11-15T19:19:31.004Z,93.65
2023-11-15T19:22:05.858Z,93.91
2023-11-15T19:24:45.954Z,94.10
2023-11-15T19:27:17.090Z,94.02
2023-11-15T19:29:55.389Z,94.20
2023-11-15T19:32:33.780Z,94.37
2023-11-15T19:35:11.022Z,94.54
2023-11-15T19:37:44.116Z,94.33
2023-11-15T19:40:16.723Z,94.22
2023-11-15T19:42:55.425Z,94.39
2023-11-15T19:45:32.554Z,93.57
2023-11-15T19:48:02.540Z,93.76
2023-11-15T19:50:40.343Z,93.98
2023-11-15T19:53:20.475Z,94.20
2023-11-15T19:55:58.254Z,94.09
2023-11-15T19:58:29.567Z,94.02
2023-11-15T20:01:08.581Z,93.84
2023-11-15T20:03:44.945Z,93.78
2023-11-15T20:06:20.330Z,93.98
2023-11-15T20:08:54.773Z,93.87
2023-11-15T20:11:27.026Z,93.61
2023-11-15T20:13:57.651Z,93.46
2023-11-15T20:16:29.659Z,93.31
2023-11-15T20:19:00.972Z,93.97
2023-11-15T20:21:31.410Z,93.56
2023-11-15T20:24:06.717Z,92.89
2023-11-15T20:26:39.293Z,92.78
2023-11-15T20:29:11.073Z,92.75
2023-11-15T20:31:43.439Z,93.09
2023-11-15T20:34:30.253Z,92.48
2023-11-15T20:37:03.282Z,92.45
2023-11-15T20:39:40.335Z,91.97
2023-11-15T20:42:15.753Z,92.13
2023-11-15T20:44:50.098Z,92.15
2023-11-15T20:47:30.898Z,91.95
2023-11-15T20:50:05.608Z,92.12
2023-11-15T20:52:38.350Z,92.58
2023-11-15T20:55:16.279Z,92.44
2023-11-15T20:57:47.601Z,92.33
2023-11-15T21:00:26.432Z,92.49
2023-11-15T21:03:00.756Z,92.55
2023-11-15T21:05:37.966Z,92.26
2023-11-15T21:08:17.479Z,92.06
2023-11-15T21:10:50.437Z,92.26
2023-11-15T21:16:06.965Z,91.57
2023-11-15T21:18:46.895Z,91.17
2023-11-15T21:21:22.009Z,91.18
2023-11-15T21:23:55.379Z,91.53
2023-11-15T21:26:32.723Z,92.04
2023-11-15T21:29:13.893Z,92.24
2023-11-15T21:31:52.247Z,91.78
2023-11-15T21:34:39.465Z,91.61
2023-11-15T21:37:24.026Z,91.40
2023-11-15T21:39:59.225Z,91.87
2023-11-15T21:42:43.001Z,92.38
2023-11-15T21:45:24.854Z,92.62
2023-11-15T21:48:05.613Z,92.77
2023-11-15T21:51:04.387Z,93.51
2023-11-15T21:54:01.524Z,93.30
2023-11-15T21:56:37.061Z,93.80
2023-11-15T21:59:14.802Z,94.49
2023-11-15T22:01:50.793Z,94.67
2023-11-15T22:04:42.393Z,94.19
2023-11-15T22:07:20.225Z,94.79
2023-11-15T22:09:49.827Z,94.20
2023-11-15T22:12:21.827Z,94.23
2023-11-15T22:15:08.748Z,94.17
2023-11-15T22:17:50.629Z,93.84
2023-11-15T22:20:28.796Z,94.06
2023-11-15T22:23:08.081Z,94.10
2023-11-15T22:25:48.542Z,93.70
2023-11-15T22:28:25.224Z,94.13
2023-11-15T22:31:00.650Z,93.76
2023-11-15T22:33:36.704Z,93.95
2023-11-15T22:36:16.492Z,94.21
2023-11-15T22:38:56.247Z,93.14
2023-11-15T22:41:31.757Z,93.47
2023-11-15T22:44:13.180Z,93.13
2023-11-15T22:46:52.723Z,93.26
2023-11-15T22:49:38.439Z,93.25
2023-11-15T22:52:14.792Z,92.94
2023-11-15T22:54:46.845Z,93.04
2023-11-15T22:57:18.311Z,93.41
2023-11-15T23:02:30.098Z,93.74
2023-11-15T23:05:11.878Z,93.71
2023-11-15T23:07:57.660Z,93.63
2023-11-15T23:10:41.822Z,93.45
2023-11-15T23:13:16.592Z,93.60
2023-11-15T23:15:52.301Z,93.69
2023-11-15T23:18:26.658Z,93.79
2023-11-15T23:20:58.027Z,93.92
2023-11-15T23:23:33.180Z,93.71
2023-11-15T23:26:10.690Z,93.75
2023-11-15T23:28:50.556Z,93.58
2023-11-15T23:31:35.748Z,93.80
2023-11-15T23:34:19.150Z,93.89
2023-11-15T23:37:08.588Z,94.01
2023-11-15T23:39:49.908Z,93.63
2023-11-15T23:42:26.307Z,93.97
2023-11-15T23:45:01.248Z,93.80
2023-11-15T23:47:40.982Z,94.31
2023-11-15T23:50:23.902Z,95.22
2023-11-15T23:52:57.456Z,95.32
2023-11-15T23:55:29.224Z,95.27
2023-11-15T23:58:04.283Z,94.83
